Time;durP1;ratioP1;P1;durP2;ratioP2;P2;SDS_P1;SDS_P2;PMS_P1;PMS_P2;Temp;Humidity;BMP_temperature;BMP_pressure;BME280_temperature;BME280_humidity;BME280_pressure;Samples;Min_cycle;Max_cycle;Signal;HPM_P1;HPM_P2
2023/11/19 00:01:11;;;;;;;0.32;0.32;;;;;;;5.17;100.00;99891.13;4987501;28;20429;-69
2023/11/19 00:03:37;;;;;;;0.55;0.40;;;;;;;5.67;100.00;99976.31;4988272;28;20455;-69
2023/11/19 00:06:04;;;;;;;0.60;0.50;;;;;;;5.34;100.00;99904.72;5004582;28;20583;-72
2023/11/19 00:08:29;;;;;;;3.28;0.47;;;;;;;5.73;100.00;99949.25;4988038;28;20034;-71
2023/11/19 00:10:55;;;;;;;0.55;0.20;;;;;;;5.81;100.00;99971.84;4987493;28;20577;-71
2023/11/19 00:13:21;;;;;;;0.43;0.40;;;;;;;5.85;100.00;99974.56;4987885;28;20031;-71
2023/11/19 00:15:47;;;;;;;0.32;0.30;;;;;;;5.79;100.00;99970.88;4988249;28;20567;-73
2023/11/19 00:18:14;;;;;;;0.50;0.40;;;;;;;5.86;100.00;99982.31;4990042;28;20035;-70
2023/11/19 00:20:39;;;;;;;0.20;0.20;;;;;;;5.81;100.00;99989.78;4992104;28;20062;-74
2023/11/19 00:23:05;;;;;;;0.40;0.40;;;;;;;5.74;100.00;99981.72;5008433;28;20080;-72
2023/11/19 00:25:30;;;;;;;0.28;0.28;;;;;;;5.63;100.00;99976.97;5014296;28;20057;-70
2023/11/19 00:27:56;;;;;;;2.28;0.40;;;;;;;5.79;100.00;100000.75;5014018;28;20033;-71
2023/11/19 00:30:22;;;;;;;0.20;0.20;;;;;;;5.56;100.00;99963.78;5012481;28;20033;-70
2023/11/19 00:32:48;;;;;;;0.52;0.40;;;;;;;5.78;100.00;100015.25;4996017;28;20037;-70
2023/11/19 00:35:16;;;;;;;0.93;0.60;;;;;;;5.31;100.00;99937.88;5014147;28;20103;-70
2023/11/19 00:37:45;;;;;;;0.30;0.30;;;;;;;5.77;100.00;100002.34;5013882;28;20134;-72
2023/11/19 00:40:11;;;;;;;0.80;0.57;;;;;;;5.23;100.00;99931.47;5013703;28;20036;-70
2023/11/19 00:42:37;;;;;;;6.32;0.40;;;;;;;5.70;100.00;100008.00;5014552;28;20034;-69
2023/11/19 00:45:03;;;;;;;0.57;0.57;;;;;;;5.61;100.00;100003.31;5013451;28;20091;-71
2023/11/19 00:47:28;;;;;;;0.60;0.47;;;;;;;5.61;100.00;100023.81;5014315;28;20038;-72
2023/11/19 00:49:54;;;;;;;0.30;0.30;;;;;;;5.61;100.00;100018.69;5013661;28;20041;-73
2023/11/19 00:52:20;;;;;;;1.17;0.50;;;;;;;5.65;100.00;100029.13;5013728;28;20052;-70
2023/11/19 00:54:45;;;;;;;0.50;0.35;;;;;;;5.50;100.00;100029.25;5013894;28;20041;-71
2023/11/19 00:57:11;;;;;;;0.50;0.50;;;;;;;5.41;100.00;100013.44;5012810;28;20389;-70
2023/11/19 00:59:37;;;;;;;0.50;0.50;;;;;;;4.74;100.00;99922.22;5013189;28;20510;-71
2023/11/19 01:02:04;;;;;;;0.57;0.52;;;;;;;5.34;100.00;100044.63;5013728;28;20034;-72
2023/11/19 01:04:34;;;;;;;5.78;0.80;;;;;;;5.00;100.00;99987.50;5013886;28;20040;-71
2023/11/19 01:07:03;;;;;;;0.95;0.60;;;;;;;5.24;100.00;100029.63;5011658;28;20033;-72
2023/11/19 01:09:29;;;;;;;3.60;0.70;;;;;;;4.74;100.00;99957.16;5013178;28;20030;-70
2023/11/19 01:11:55;;;;;;;0.57;0.57;;;;;;;5.10;100.00;100004.19;5012789;28;20029;-70
2023/11/19 01:14:20;;;;;;;0.43;0.40;;;;;;;5.29;100.00;100049.50;5012328;28;20388;-71
2023/11/19 01:16:46;;;;;;;1.38;0.40;;;;;;;5.35;100.00;100067.75;5012717;28;20025;-73
2023/11/19 01:19:11;;;;;;;0.68;0.60;;;;;;;5.40;100.00;100067.13;5013212;28;20377;-70
2023/11/19 01:21:37;;;;;;;0.40;0.40;;;;;;;5.43;100.00;100068.16;5012614;28;20030;-71
2023/11/19 01:24:04;;;;;;;0.70;0.50;;;;;;;5.34;100.00;100047.19;5012135;28;20021;-70
2023/11/19 01:26:29;;;;;;;0.43;0.43;;;;;;;5.43;100.00;100080.06;5012396;28;20057;-70
2023/11/19 01:28:56;;;;;;;0.47;0.40;;;;;;;5.43;100.00;100075.84;5012428;28;20120;-69
2023/11/19 01:31:21;;;;;;;2.22;1.00;;;;;;;5.47;100.00;100082.88;5012697;28;20381;-71
2023/11/19 01:36:48;;;;;;;0.68;0.52;;;;;;;5.46;100.00;100072.56;5115828;23;20094;-69
2023/11/19 01:39:16;;;;;;;0.40;0.40;;;;;;;5.35;100.00;100062.63;5023828;28;20101;-70
2023/11/19 01:41:41;;;;;;;0.73;0.60;;;;;;;5.38;100.00;100064.47;4991589;28;20032;-71
2023/11/19 01:44:07;;;;;;;0.30;0.30;;;;;;;5.30;100.00;100043.59;4992652;28;20018;-73
2023/11/19 01:46:33;;;;;;;1.45;0.63;;;;;;;4.97;100.00;99994.13;4992784;28;20489;-71
2023/11/19 01:48:59;;;;;;;0.40;0.40;;;;;;;5.19;100.00;100032.81;4992824;28;20386;-70
2023/11/19 01:51:25;;;;;;;1.60;0.75;;;;;;;5.40;100.00;100059.44;4993145;28;20071;-71
2023/11/19 01:53:51;;;;;;;0.40;0.40;;;;;;;5.27;100.00;100034.88;4993046;28;20026;-69
2023/11/19 01:56:17;;;;;;;0.40;0.40;;;;;;;5.40;100.00;100064.56;4992834;28;20026;-72
2023/11/19 01:58:44;;;;;;;0.68;0.68;;;;;;;5.44;100.00;100048.56;4992615;28;20397;-70
2023/11/19 02:01:11;;;;;;;1.58;0.60;;;;;;;5.30;100.00;100035.06;4991304;28;20030;-71
2023/11/19 02:03:37;;;;;;;1.63;0.70;;;;;;;5.44;100.00;100043.44;4992934;28;20030;-70
2023/11/19 02:06:03;;;;;;;0.90;0.50;;;;;;;5.29;100.00;100023.91;4993425;28;20048;-71
2023/11/19 02:08:29;;;;;;;0.80;0.60;;;;;;;5.28;100.00;100036.66;4992660;28;20046;-71
2023/11/19 02:10:57;;;;;;;0.80;0.60;;;;;;;5.40;100.00;100042.41;4993004;28;20033;-70
2023/11/19 02:13:24;;;;;;;0.50;0.50;;;;;;;4.80;100.00;99932.75;4992634;28;20055;-70
2023/11/19 02:15:50;;;;;;;0.50;0.50;;;;;;;5.26;100.00;100018.66;4992199;28;20030;-68
2023/11/19 02:18:30;;;;;;;0.63;0.60;;;;;;;5.00;100.00;99979.81;4992296;28;20038;-70
2023/11/19 02:20:57;;;;;;;0.70;0.70;;;;;;;5.39;100.00;100026.97;4992495;28;20061;-71
2023/11/19 02:23:24;;;;;;;0.73;0.60;;;;;;;5.33;100.00;100009.59;4992585;28;20038;-71
2023/11/19 02:26:23;;;;;;;1.50;0.45;;;;;;;5.45;100.00;100037.50;4992883;28;20038;-72
2023/11/19 02:28:49;;;;;;;1.25;0.90;;;;;;;5.29;100.00;100007.69;5007522;28;20034;-71
2023/11/19 02:31:15;;;;;;;1.30;0.40;;;;;;;5.38;100.00;100012.41;4992555;28;20057;-69
2023/11/19 02:33:40;;;;;;;0.50;0.50;;;;;;;5.55;100.00;100036.31;5007149;28;20066;-74
2023/11/19 02:36:07;;;;;;;0.30;0.30;;;;;;;5.40;100.00;100034.72;5007008;28;20525;-70
2023/11/19 02:38:36;;;;;;;0.75;0.60;;;;;;;5.47;100.00;100026.53;4991873;28;20035;-70
2023/11/19 02:41:06;;;;;;;1.25;0.40;;;;;;;5.52;100.00;100016.53;4992144;28;20048;-70
2023/11/19 02:43:35;;;;;;;0.63;0.60;;;;;;;5.45;100.00;100010.22;4992163;28;20030;-70
2023/11/19 02:46:08;;;;;;;0.50;0.50;;;;;;;5.65;100.00;100033.38;4992238;28;20113;-70
2023/11/19 02:48:38;;;;;;;0.60;0.60;;;;;;;5.59;100.00;100039.06;4992522;28;20058;-72
2023/11/19 02:51:04;;;;;;;0.30;0.30;;;;;;;5.59;100.00;100026.25;4991650;28;20508;-75
2023/11/19 02:53:30;;;;;;;1.63;0.47;;;;;;;5.53;100.00;100018.28;4992154;28;20030;-76
2023/11/19 02:56:02;;;;;;;0.30;0.30;;;;;;;5.49;100.00;100027.47;4992144;28;20034;-71
2023/11/19 02:58:28;;;;;;;0.98;0.60;;;;;;;5.34;100.00;100012.22;4991629;28;20558;-71
2023/11/19 03:00:57;;;;;;;2.13;0.52;;;;;;;5.39;100.00;100037.19;4993068;28;20435;-75
2023/11/19 03:03:37;;;;;;;0.50;0.50;;;;;;;5.30;100.00;100025.69;4992422;28;20034;-75
2023/11/19 03:06:04;;;;;;;0.57;0.57;;;;;;;5.37;100.00;100051.59;5006791;28;20532;-71
2023/11/19 03:08:30;;;;;;;0.60;0.60;;;;;;;5.32;100.00;100031.78;4992363;28;20026;-70
2023/11/19 03:10:55;;;;;;;1.40;0.60;;;;;;;5.47;100.00;100049.59;4989233;28;20096;-71
2023/11/19 03:13:21;;;;;;;0.73;0.60;;;;;;;5.49;100.00;100062.47;4991402;28;20027;-71
2023/11/19 03:15:47;;;;;;;1.17;0.50;;;;;;;5.42;100.00;100040.81;4991223;28;20057;-74
2023/11/19 03:18:12;;;;;;;0.50;0.50;;;;;;;5.51;100.00;100055.75;5005552;28;20511;-70
2023/11/19 03:20:38;;;;;;;1.17;0.50;;;;;;;5.47;100.00;100059.84;4990217;28;20034;-70
2023/11/19 03:23:03;;;;;;;0.73;0.50;;;;;;;5.46;100.00;100062.31;4991083;28;20058;-69
2023/11/19 03:25:36;;;;;;;0.73;0.57;;;;;;;5.28;100.00;100041.75;5006141;28;20118;-72
2023/11/19 03:28:03;;;;;;;0.95;0.60;;;;;;;5.46;100.00;100062.31;4991761;28;20040;-70
2023/11/19 03:30:32;;;;;;;0.38;0.38;;;;;;;5.35;100.00;100067.75;5006451;28;20488;-73
2023/11/19 03:32:57;;;;;;;0.43;0.43;;;;;;;5.47;100.00;100074.28;4991026;28;20052;-71
2023/11/19 03:35:24;;;;;;;4.22;0.40;;;;;;;5.19;100.00;100025.13;4991439;28;20408;-69
2023/11/19 03:37:51;;;;;;;0.32;0.32;;;;;;;5.41;100.00;100049.28;4990809;28;20034;-69
2023/11/19 03:40:17;;;;;;;1.08;0.60;;;;;;;5.52;100.00;100078.00;4990502;28;20038;-70
2023/11/19 03:42:43;;;;;;;0.50;0.50;;;;;;;5.44;100.00;100051.13;5004927;28;20101;-72
2023/11/19 03:45:09;;;;;;;0.40;0.40;;;;;;;5.60;100.00;100074.13;4991001;28;20034;-71
2023/11/19 03:47:35;;;;;;;0.38;0.38;;;;;;;5.53;100.00;100063.50;4990417;28;20041;-70
2023/11/19 03:50:02;;;;;;;0.38;0.38;;;;;;;5.58;100.00;100073.19;4991355;28;20064;-69
2023/11/19 03:52:28;;;;;;;0.60;0.57;;;;;;;5.59;100.00;100079.16;4989078;28;20030;-68
2023/11/19 03:54:55;;;;;;;0.45;0.45;;;;;;;5.60;100.00;100086.91;4990476;28;20139;-70
2023/11/19 03:57:20;;;;;;;0.40;0.40;;;;;;;5.60;100.00;100076.69;4991264;28;20054;-68
2023/11/19 03:59:46;;;;;;;0.93;0.50;;;;;;;5.53;100.00;100068.63;4990415;28;20476;-70
2023/11/19 04:02:31;;;;;;;0.47;0.47;;;;;;;5.49;100.00;100071.00;5007706;28;20144;-70
2023/11/19 04:04:57;;;;;;;1.92;0.98;;;;;;;5.59;100.00;100084.28;4991627;28;20428;-70
2023/11/19 04:07:22;;;;;;;1.02;0.50;;;;;;;5.58;100.00;100096.22;5007349;28;20537;-70
2023/11/19 04:09:48;;;;;;;0.40;0.40;;;;;;;5.38;100.00;100063.59;5007724;28;20536;-69
2023/11/19 04:12:13;;;;;;;0.50;0.50;;;;;;;5.58;100.00;100101.34;5005547;28;20042;-70
2023/11/19 04:14:40;;;;;;;0.50;0.50;;;;;;;5.57;100.00;100112.38;5003015;28;20112;-69
2023/11/19 04:17:05;;;;;;;0.80;0.60;;;;;;;5.62;100.00;100110.94;5007816;28;20045;-74
2023/11/19 04:19:32;;;;;;;0.63;0.57;;;;;;;5.67;100.00;100141.91;5007638;28;20444;-69
2023/11/19 04:21:58;;;;;;;0.68;0.68;;;;;;;5.23;100.00;100090.16;5007601;28;20030;-69
2023/11/19 04:24:24;;;;;;;1.52;0.90;;;;;;;5.43;100.00;100119.38;5007168;28;20115;-69
2023/11/19 04:26:49;;;;;;;1.33;1.23;;;;;;;5.54;100.00;100152.31;5007589;28;20037;-71
2023/11/19 04:29:19;;;;;;;1.33;0.80;;;;;;;5.51;100.00;100160.72;5007985;28;20042;-69
2023/11/19 04:31:45;;;;;;;;;;;;;;;5.67;100.00;100181.19;4991308;28;20157;-70
2023/11/19 04:34:11;;;;;;;0.70;0.70;;;;;;;5.73;100.00;100185.78;4993478;28;20015;-70
2023/11/19 04:36:37;;;;;;;0.95;0.75;;;;;;;5.76;100.00;100193.59;4991441;28;20117;-69
2023/11/19 04:39:15;;;;;;;1.10;0.90;;;;;;;5.85;100.00;100200.00;4990818;28;20035;-69
2023/11/19 04:41:51;;;;;;;0.95;0.90;;;;;;;5.85;100.00;100198.31;4990522;28;20050;-69
2023/11/19 04:44:17;;;;;;;0.90;0.88;;;;;;;6.00;100.00;100211.06;4990759;28;20042;-70
2023/11/19 04:46:44;;;;;;;1.80;0.98;;;;;;;5.95;100.00;100197.97;4991297;28;20039;-68
2023/11/19 04:49:10;;;;;;;1.60;0.88;;;;;;;6.06;100.00;100220.75;4988117;28;20054;-70
2023/11/19 04:51:43;;;;;;;2.35;1.40;;;;;;;6.14;100.00;100224.59;4990832;28;20492;-69
2023/11/19 04:54:16;;;;;;;1.08;0.90;;;;;;;6.25;100.00;100228.56;4991303;28;20048;-70
2023/11/19 04:56:45;;;;;;;1.00;0.77;;;;;;;6.32;100.00;100242.59;4989385;28;20097;-69
2023/11/19 04:59:11;;;;;;;2.92;1.27;;;;;;;5.88;100.00;100160.06;4990707;28;20385;-70
2023/11/19 05:01:37;;;;;;;1.10;0.98;;;;;;;6.42;100.00;100226.84;4989292;28;20044;-67
2023/11/19 05:04:03;;;;;;;1.88;1.00;;;;;;;6.40;100.00;100238.72;4992500;28;20076;-67
2023/11/19 05:06:30;;;;;;;2.35;1.02;;;;;;;6.42;100.00;100241.38;4994514;28;20451;-67
2023/11/19 05:08:57;;;;;;;3.10;0.90;;;;;;;6.24;100.00;100237.09;4993958;28;20026;-70
2023/11/19 05:11:22;;;;;;;2.60;0.95;;;;;;;6.22;100.00;100238.69;4994096;28;20050;-70
2023/11/19 05:13:48;;;;;;;1.13;0.90;;;;;;;6.25;100.00;100246.50;4994738;28;20073;-70
2023/11/19 05:16:15;;;;;;;2.20;1.45;;;;;;;6.11;100.00;100256.06;4992533;28;20530;-70
2023/11/19 05:18:40;;;;;;;1.88;1.02;;;;;;;5.95;100.00;100250.91;4993562;28;20481;-72
2023/11/19 05:21:06;;;;;;;3.42;1.05;;;;;;;6.09;100.00;100264.47;4993796;28;20064;-70
2023/11/19 05:23:33;;;;;;;1.83;1.25;;;;;;;5.65;100.00;100174.25;4993477;28;20034;-70
2023/11/19 05:26:00;;;;;;;2.50;1.50;;;;;;;5.95;100.00;100240.69;4993801;28;20030;-70
2023/11/19 05:28:26;;;;;;;2.08;1.10;;;;;;;5.61;100.00;100201.38;4992290;28;20034;-75
2023/11/19 05:30:51;;;;;;;1.63;1.20;;;;;;;5.90;100.00;100240.44;4993829;28;20041;-68
2023/11/19 05:33:17;;;;;;;3.90;1.33;;;;;;;5.51;100.00;100178.66;4993444;28;20524;-69
2023/11/19 05:35:43;;;;;;;2.05;1.45;;;;;;;6.04;100.00;100269.34;4993469;28;20057;-71
2023/11/19 05:38:09;;;;;;;1.27;1.10;;;;;;;5.99;100.00;100274.25;5011404;28;20084;-70
2023/11/19 05:40:35;;;;;;;2.45;1.05;;;;;;;5.93;100.00;100261.09;5011335;28;20050;-69
2023/11/19 05:43:01;;;;;;;1.98;1.15;;;;;;;5.55;100.00;100216.41;5010557;28;20046;-70
2023/11/19 05:45:27;;;;;;;1.25;1.00;;;;;;;5.58;100.00;100219.16;5010209;28;20624;-70
2023/11/19 05:47:52;;;;;;;3.45;1.38;;;;;;;5.66;100.00;100245.16;5010267;28;20042;-69
2023/11/19 05:50:18;;;;;;;1.65;1.27;;;;;;;5.98;100.00;100294.63;5009984;28;20149;-69
2023/11/19 05:52:44;;;;;;;2.80;1.52;;;;;;;5.96;100.00;100309.06;5010331;28;20052;-74
2023/11/19 05:55:10;;;;;;;3.03;1.65;;;;;;;5.85;100.00;100282.88;5010301;28;20070;-71
2023/11/19 05:57:37;;;;;;;2.38;1.30;;;;;;;5.95;100.00;100297.91;5009989;28;20593;-70
2023/11/19 06:00:06;;;;;;;1.70;1.20;;;;;;;5.91;100.00;100280.63;5009765;28;20038;-70
2023/11/19 06:02:32;;;;;;;1.58;1.20;;;;;;;5.69;100.00;100262.38;5009937;28;20049;-69
2023/11/19 06:04:58;;;;;;;2.30;1.38;;;;;;;6.06;100.00;100313.91;5009918;28;20040;-69
2023/11/19 06:07:24;;;;;;;1.98;1.30;;;;;;;5.72;100.00;100258.28;5009404;28;20030;-70
2023/11/19 06:09:50;;;;;;;5.22;1.63;;;;;;;6.01;100.00;100345.19;4995968;28;20030;-69
2023/11/19 06:12:15;;;;;;;3.80;1.10;;;;;;;5.49;100.00;100231.44;4992929;28;20026;-69
2023/11/19 06:14:41;;;;;;;2.20;1.27;;;;;;;5.96;100.00;100311.63;4990802;28;20117;-69
2023/11/19 06:17:08;;;;;;;5.25;1.42;;;;;;;6.00;100.00;100318.69;4991049;28;20026;-75
2023/11/19 06:19:34;;;;;;;2.35;1.60;;;;;;;6.01;100.00;100317.00;4990894;28;20035;-69
2023/11/19 06:21:59;;;;;;;1.80;1.40;;;;;;;5.94;100.00;100297.84;4992390;28;20034;-70
2023/11/19 06:24:25;;;;;;;9.02;2.38;;;;;;;6.05;100.00;100313.81;4992951;28;20488;-70
2023/11/19 06:26:50;;;;;;;1.88;1.15;;;;;;;5.97;100.00;100304.00;4992012;28;20042;-70
2023/11/19 06:29:19;;;;;;;1.75;1.20;;;;;;;5.91;100.00;100274.63;4992157;28;20365;-70
2023/11/19 06:31:45;;;;;;;2.25;1.65;;;;;;;5.98;100.00;100290.44;5006656;28;20121;-70
2023/11/19 06:34:11;;;;;;;2.28;1.40;;;;;;;5.99;100.00;100302.44;4991940;28;20038;-69
2023/11/19 06:36:36;;;;;;;1.95;1.40;;;;;;;6.12;100.00;100309.09;4992178;28;20046;-69
2023/11/19 06:39:02;;;;;;;3.67;1.60;;;;;;;6.10;100.00;100310.69;5006058;28;20484;-71
2023/11/19 06:41:28;;;;;;;4.00;2.13;;;;;;;6.20;100.00;100318.88;4991552;28;20058;-69
2023/11/19 06:43:54;;;;;;;8.52;2.00;;;;;;;6.22;99.49;100322.38;4991808;28;20396;-69
2023/11/19 06:46:20;;;;;;;3.22;1.50;;;;;;;6.19;100.00;100335.91;4991987;28;20030;-70
2023/11/19 06:48:46;;;;;;;2.67;1.55;;;;;;;6.15;100.00;100316.06;4991747;28;20065;-70
2023/11/19 06:51:12;;;;;;;2.00;1.40;;;;;;;6.28;100.00;100338.97;4991509;28;20034;-70
2023/11/19 06:53:39;;;;;;;2.60;1.70;;;;;;;5.70;100.00;100238.53;4991826;28;20084;-69
2023/11/19 06:56:06;;;;;;;2.15;1.33;;;;;;;6.08;99.33;100322.56;5022402;28;20036;-69
2023/11/19 06:58:39;;;;;;;1.67;1.30;;;;;;;5.52;99.47;100223.94;4991526;28;20026;-68
2023/11/19 07:01:07;;;;;;;3.28;1.58;;;;;;;6.14;99.89;100335.69;4991482;28;20023;-72
2023/11/19 07:03:35;;;;;;;3.60;2.00;;;;;;;6.18;100.00;100323.94;4991417;28;20381;-70
2023/11/19 07:06:00;;;;;;;2.92;1.80;;;;;;;6.27;99.87;100332.06;4991334;28;20113;-70
2023/11/19 07:08:26;;;;;;;2.83;1.80;;;;;;;6.40;98.50;100331.03;4991097;28;20560;-70
2023/11/19 07:10:52;;;;;;;3.38;1.65;;;;;;;6.35;97.50;100295.72;5011225;28;20469;-69
2023/11/19 07:13:19;;;;;;;7.07;2.13;;;;;;;6.81;97.47;100346.75;4986520;28;20050;-70
2023/11/19 07:15:44;;;;;;;4.25;2.20;;;;;;;6.95;96.84;100357.69;4990767;28;20034;-70
2023/11/19 07:18:11;;;;;;;3.90;2.10;;;;;;;7.17;96.68;100351.94;4991677;28;20088;-69
2023/11/19 07:20:39;;;;;;;3.35;1.75;;;;;;;7.37;96.08;100355.47;4991419;28;20018;-70
2023/11/19 07:23:06;;;;;;;3.45;1.73;;;;;;;7.34;96.45;100354.44;4990911;28;20762;-74
2023/11/19 07:25:31;;;;;;;2.55;1.50;;;;;;;7.34;94.93;100342.50;4991409;28;20043;-71
2023/11/19 07:27:58;;;;;;;2.33;0.88;;;;;;;7.42;92.01;100342.84;5005887;28;20030;-70
2023/11/19 07:30:23;;;;;;;1.85;1.10;;;;;;;7.50;92.29;100348.34;4989093;28;20072;-70
2023/11/19 07:32:48;;;;;;;2.85;1.30;;;;;;;7.49;91.80;100346.59;4990644;28;20128;-69
2023/11/19 07:35:15;;;;;;;3.65;1.40;;;;;;;6.99;91.64;100232.97;4991254;28;20170;-70
2023/11/19 07:37:42;;;;;;;1.98;1.27;;;;;;;7.57;91.14;100317.88;4988676;28;20042;-71
2023/11/19 07:40:08;;;;;;;4.45;1.90;;;;;;;7.78;91.44;100343.69;4990717;28;20034;-70
2023/11/19 07:42:33;;;;;;;1.33;1.10;;;;;;;7.51;90.93;100330.44;4990605;28;20046;-70
2023/11/19 07:44:59;;;;;;;4.18;1.00;;;;;;;7.61;92.00;100357.44;4990676;28;20030;-70
2023/11/19 07:47:25;;;;;;;6.65;1.80;;;;;;;7.50;91.28;100335.50;4990420;28;20036;-71
2023/11/19 07:49:51;;;;;;;4.85;1.92;;;;;;;7.78;90.96;100364.25;4990946;28;20029;-70
2023/11/19 07:52:16;;;;;;;5.43;1.60;;;;;;;7.89;92.06;100369.91;4991542;28;20030;-70
2023/11/19 07:54:41;;;;;;;2.05;1.40;;;;;;;7.64;93.02;100390.09;4990425;28;20058;-70
2023/11/19 07:57:07;;;;;;;2.10;1.50;;;;;;;7.60;96.32;100383.94;4990733;28;20081;-69
2023/11/19 07:59:34;;;;;;;3.85;1.52;;;;;;;7.45;97.90;100396.94;4990228;28;20042;-70
2023/11/19 08:01:59;;;;;;;1.67;1.58;;;;;;;7.23;98.35;100372.78;5005627;28;20026;-69
2023/11/19 08:04:25;;;;;;;1.63;1.40;;;;;;;7.23;98.39;100405.31;4990681;28;20543;-69
2023/11/19 08:06:51;;;;;;;3.17;1.35;;;;;;;7.23;97.83;100410.44;4990872;28;20023;-68
2023/11/19 08:09:16;;;;;;;1.80;1.40;;;;;;;7.26;97.71;100413.13;4990464;28;20022;-70
2023/11/19 08:11:42;;;;;;;4.25;1.60;;;;;;;7.33;97.85;100398.91;5005328;28;20026;-70
2023/11/19 08:14:08;;;;;;;3.38;1.52;;;;;;;7.26;96.89;100380.66;4990077;28;20022;-74
2023/11/19 08:16:33;;;;;;;2.78;1.60;;;;;;;7.56;99.36;100405.16;4990502;28;20068;-70
2023/11/19 08:18:59;;;;;;;3.08;1.80;;;;;;;7.24;97.75;100336.03;4990549;28;20116;-70
2023/11/19 08:21:26;;;;;;;2.15;1.55;;;;;;;7.60;97.70;100402.81;4990550;28;20101;-70
2023/11/19 08:23:52;;;;;;;2.33;1.65;;;;;;;7.44;97.16;100344.69;4990441;28;20022;-69
2023/11/19 08:26:17;;;;;;;3.60;1.80;;;;;;;7.83;96.72;100397.88;5005573;28;20029;-71
2023/11/19 08:28:43;;;;;;;2.60;1.70;;;;;;;7.74;95.91;100374.34;4989943;28;20081;-70
2023/11/19 08:31:10;;;;;;;2.53;1.48;;;;;;;7.37;94.81;100323.78;4990275;28;20030;-70
2023/11/19 08:33:35;;;;;;;3.05;1.95;;;;;;;7.82;95.39;100388.41;4989937;28;20488;-70
2023/11/19 08:36:01;;;;;;;2.72;1.83;;;;;;;8.05;91.03;100410.03;4990337;28;20061;-69
2023/11/19 08:38:26;;;;;;;2.90;1.38;;;;;;;8.15;89.14;100421.63;4990851;28;20022;-70
2023/11/19 08:40:52;;;;;;;2.80;1.50;;;;;;;8.31;89.23;100418.06;4994325;28;20030;-68
2023/11/19 08:43:17;;;;;;;2.17;1.30;;;;;;;8.42;88.99;100413.41;4993818;28;20033;-71
2023/11/19 08:45:44;;;;;;;3.35;1.60;;;;;;;8.32;87.17;100395.78;4994242;28;20022;-70
2023/11/19 08:48:10;;;;;;;2.58;1.40;;;;;;;8.62;87.31;100421.16;4993928;28;20042;-70
2023/11/19 08:50:36;;;;;;;2.05;1.50;;;;;;;8.84;87.09;100422.97;4993831;28;20042;-69
2023/11/19 08:53:01;;;;;;;2.17;1.33;;;;;;;9.04;87.49;100423.81;4993957;28;20472;-70
2023/11/19 08:55:27;;;;;;;1.45;1.25;;;;;;;8.73;85.00;100373.59;5008569;28;20030;-70
2023/11/19 08:57:52;;;;;;;0.80;0.80;;;;;;;9.15;86.42;100417.44;4993431;28;20124;-70
2023/11/19 09:00:18;;;;;;;2.45;1.05;;;;;;;9.26;85.52;100422.13;4994056;28;20026;-72
2023/11/19 09:02:44;;;;;;;2.15;1.25;;;;;;;9.22;86.64;100416.88;4994018;28;20062;-69
2023/11/19 09:05:10;;;;;;;1.90;1.10;;;;;;;9.42;85.88;100424.56;4994702;28;20026;-71
2023/11/19 09:07:35;;;;;;;2.15;0.80;;;;;;;9.37;85.68;100423.47;4992974;28;20049;-73
2023/11/19 09:10:01;;;;;;;1.13;1.02;;;;;;;9.48;85.28;100422.22;4994080;28;20041;-70
2023/11/19 09:12:27;;;;;;;1.30;1.17;;;;;;;9.11;85.62;100374.34;4993501;28;20114;-75
2023/11/19 09:14:52;;;;;;;1.75;1.10;;;;;;;9.55;87.84;100426.78;4993531;28;20088;-70
2023/11/19 09:17:18;;;;;;;4.20;2.20;;;;;;;9.67;84.34;100404.88;4993518;28;20030;-70
2023/11/19 09:19:44;;;;;;;2.70;1.42;;;;;;;9.84;81.21;100423.59;4993618;28;20046;-71
2023/11/19 09:22:09;;;;;;;1.65;1.17;;;;;;;9.61;81.10;100415.84;4993171;28;20487;-70
2023/11/19 09:24:36;;;;;;;1.40;1.13;;;;;;;9.71;80.42;100389.63;4993417;28;20030;-73
2023/11/19 09:27:01;;;;;;;1.38;1.10;;;;;;;9.43;80.19;100328.38;4993118;28;20049;-68
2023/11/19 09:29:27;;;;;;;2.15;1.20;;;;;;;10.00;79.09;100417.34;4993530;28;20030;-69
2023/11/19 09:31:52;;;;;;;3.13;1.20;;;;;;;9.84;79.86;100387.50;4993395;28;20484;-70
2023/11/19 09:34:17;;;;;;;1.60;1.00;;;;;;;10.00;79.02;100394.16;4993142;28;20030;-70
2023/11/19 09:36:44;;;;;;;6.03;1.70;;;;;;;10.05;80.41;100374.56;4993682;28;20046;-68
2023/11/19 09:39:17;;;;;;;1.25;1.00;;;;;;;9.93;75.59;100358.63;4993231;28;20480;-68
2023/11/19 09:41:44;;;;;;;3.50;1.63;;;;;;;10.18;78.09;100369.03;4992779;28;20112;-70
2023/11/19 09:44:11;;;;;;;2.75;1.50;;;;;;;10.31;77.15;100382.38;4995781;28;20030;-70
2023/11/19 09:46:39;;;;;;;1.27;1.02;;;;;;;10.45;75.80;100377.75;4994228;28;20026;-70
2023/11/19 09:49:07;;;;;;;2.33;1.10;;;;;;;10.22;77.39;100302.06;4993524;28;20038;-69
2023/11/19 09:51:33;;;;;;;2.42;1.35;;;;;;;10.71;77.25;100385.56;4991955;28;20023;-70
2023/11/19 09:53:58;;;;;;;2.30;1.10;;;;;;;10.71;72.62;100391.59;4993170;28;20410;-70
2023/11/19 09:56:24;;;;;;;1.98;1.27;;;;;;;10.73;74.49;100384.78;4992994;28;20089;-68
2023/11/19 09:58:49;;;;;;;1.50;1.20;;;;;;;10.69;74.38;100380.31;4993117;28;20031;-69
2023/11/19 10:01:15;;;;;;;1.60;1.13;;;;;;;9.81;74.66;100246.47;4993057;28;20026;-70
2023/11/19 10:03:43;;;;;;;1.27;0.98;;;;;;;10.60;74.83;100365.38;4992517;28;20536;-70
2023/11/19 10:06:10;;;;;;;4.35;1.30;;;;;;;10.92;72.25;100377.66;4992694;28;20520;-71
2023/11/19 10:08:42;;;;;;;1.52;1.20;;;;;;;10.85;73.21;100379.16;4992640;28;20092;-71
2023/11/19 10:11:08;;;;;;;1.50;1.00;;;;;;;10.98;72.21;100365.84;4992782;28;20495;-69
2023/11/19 10:13:40;;;;;;;2.85;1.30;;;;;;;11.00;72.33;100378.78;4992867;28;20370;-70
2023/11/19 10:16:12;;;;;;;1.92;1.17;;;;;;;10.96;71.61;100367.47;4990686;28;20046;-73
2023/11/19 10:18:44;;;;;;;2.47;1.65;;;;;;;11.11;75.01;100364.53;4992632;28;20467;-70
2023/11/19 10:21:16;;;;;;;1.92;1.40;;;;;;;11.11;71.21;100367.09;4991485;28;20038;-70
2023/11/19 10:23:56;;;;;;;1.60;1.23;;;;;;;11.22;70.76;100364.88;4992628;28;20445;-70
2023/11/19 10:26:22;;;;;;;3.22;1.40;;;;;;;11.02;68.47;100366.81;4992695;28;20121;-74
2023/11/19 10:28:48;;;;;;;2.67;1.60;;;;;;;11.13;69.84;100372.34;4992618;28;20134;-73
2023/11/19 10:31:15;;;;;;;1.58;1.05;;;;;;;11.01;66.46;100359.88;4992454;28;20462;-69
2023/11/19 10:33:41;;;;;;;2.67;1.70;;;;;;;10.99;66.69;100341.75;4992445;28;20105;-70
2023/11/19 10:36:07;;;;;;;4.32;1.13;;;;;;;11.05;66.29;100350.53;4992250;28;20133;-73
2023/11/19 10:38:33;;;;;;;2.33;1.35;;;;;;;11.13;66.07;100342.22;4992156;28;20493;-70
2023/11/19 10:40:59;;;;;;;1.55;1.17;;;;;;;10.79;66.23;100273.06;4992296;28;20030;-69
2023/11/19 10:43:25;;;;;;;2.47;1.35;;;;;;;11.28;64.82;100335.78;5006298;28;20093;-70
2023/11/19 10:46:11;;;;;;;24.00;3.10;;;;;;;10.76;65.86;100247.16;4971182;28;20529;-69
2023/11/19 10:48:38;;;;;;;9.30;1.15;;;;;;;10.44;64.20;100192.75;4970239;28;20038;-75
2023/11/19 10:51:07;;;;;;;18.30;2.35;;;;;;;10.86;64.35;100253.50;4970147;28;20505;-70
2023/11/19 10:53:37;;;;;;;1.88;1.20;;;;;;;11.49;64.32;100333.00;4970161;28;20057;-70
2023/11/19 10:56:05;;;;;;;;;;;;;;;11.40;62.56;100330.13;4970986;28;20046;-67
2023/11/19 10:58:34;;;;;;;1.63;1.00;;;;;;;11.16;63.12;100323.34;4969804;28;20388;-72
2023/11/19 11:01:05;;;;;;;4.00;1.47;;;;;;;11.20;64.22;100329.47;4961348;28;20197;-69
2023/11/19 11:03:39;;;;;;;2.00;1.10;;;;;;;11.19;63.71;100301.88;4964613;28;20034;-69
2023/11/19 11:06:05;;;;;;;7.18;3.22;;;;;;;11.24;65.12;100316.72;4953292;28;20039;-71
2023/11/19 11:08:51;;;;;;;3.50;1.50;;;;;;;10.75;62.98;100238.50;4953848;28;20060;-73
2023/11/19 11:11:17;;;;;;;5.07;1.60;;;;;;;11.15;63.39;100306.97;4969429;28;20126;-70
2023/11/19 11:13:43;;;;;;;3.83;2.08;;;;;;;11.19;63.03;100318.28;4969191;28;20110;-73
2023/11/19 11:16:08;;;;;;;4.25;2.00;;;;;;;11.28;65.30;100317.69;4968919;28;20533;-71
2023/11/19 11:18:34;;;;;;;2.97;1.70;;;;;;;11.25;66.52;100309.84;4995378;28;20048;-70
2023/11/19 11:21:05;;;;;;;1.90;1.30;;;;;;;11.25;67.97;100321.06;4994023;28;20034;-69
2023/11/19 11:23:53;;;;;;;7.43;1.65;;;;;;;11.02;67.48;100307.41;4991756;28;20070;-70
2023/11/19 11:26:40;;;;;;;7.25;1.50;;;;;;;11.30;69.16;100308.28;5007967;28;20034;-73
2023/11/19 11:29:21;;;;;;;2.38;1.30;;;;;;;11.27;66.06;100308.19;4992985;28;20044;-71
2023/11/19 11:32:23;;;;;;;2.17;1.65;;;;;;;11.22;67.33;100286.50;5008508;28;20037;-73